Carrington, Missouri
Current Conditions -  °F | °C
As of 4:27 AM on Friday 24 Oct 2014 (Local Time) from KCOU Reporting Station
Moderate Fog Moderate Fog  
Wind Chill: 53°   Ceiling: 1500
Heat Index: 53°   Visibility: 0.5mi
Dew Point: 53°   Wind: 7mph
Humidity: 100%   Direction: 250°WSW
Pressure: 30.1"   Gusts: NA
Location:  38.8555°N, 91.9568°W
Report Text: KCOU 240927Z AUTO 25006KT 1/2SM FG SCT002 BKN015 12/12 A3010 RMK AO2 T01170117
Loading
Personal Weather Stations






























Interactive Weather Map
Tropical Storm Tracking
New forecast layout! Learn more

10-Day Weather Forecast

Advertisements
Track Severe Weather on mobile